createdAt,value
2022-11-27T09:33:14.759Z,3.12
2022-11-27T09:34:17.737Z,2.94
2022-11-27T09:35:22.767Z,2.99
2022-11-27T09:36:26.663Z,2.97
2022-11-27T09:37:30.344Z,2.91
2022-11-27T09:38:33.335Z,3.46
2022-11-27T09:39:36.831Z,3.83
2022-11-27T09:40:39.900Z,3.60
2022-11-27T09:41:42.669Z,2.37
2022-11-27T09:42:45.448Z,2.70
2022-11-27T09:43:48.527Z,3.06
2022-11-27T09:44:54.168Z,3.57
2022-11-27T09:46:08.299Z,3.89
2022-11-27T09:47:11.070Z,4.20
2022-11-27T09:48:14.588Z,4.21
2022-11-27T09:49:20.159Z,3.91
2022-11-27T09:50:23.798Z,3.71
2022-11-27T09:51:27.508Z,3.68
2022-11-27T09:52:31.389Z,3.94
2022-11-27T09:53:34.669Z,3.85
2022-11-27T09:54:37.999Z,3.11
2022-11-27T09:55:41.905Z,3.07
2022-11-27T09:56:45.467Z,3.18
2022-11-27T09:57:48.527Z,3.38
2022-11-27T09:58:51.401Z,2.83
2022-11-27T09:59:54.782Z,2.60
2022-11-27T10:00:58.277Z,2.75
2022-11-27T10:02:01.884Z,2.62
2022-11-27T10:03:04.993Z,3.17
2022-11-27T10:04:07.831Z,3.88
2022-11-27T10:05:14.779Z,4.22
2022-11-27T10:06:15.929Z,3.78
2022-11-27T10:07:20.381Z,3.88
2022-11-27T10:08:23.519Z,3.56
2022-11-27T10:09:27.104Z,3.31
2022-11-27T10:10:30.808Z,3.66
2022-11-27T10:11:37.269Z,3.73
2022-11-27T10:12:40.239Z,3.82
2022-11-27T10:13:44.144Z,3.82
2022-11-27T10:14:47.828Z,4.04
2022-11-27T10:15:50.909Z,3.72
2022-11-27T10:16:54.490Z,3.55
2022-11-27T10:17:59.633Z,3.79
2022-11-27T10:19:02.709Z,3.75
2022-11-27T10:20:05.690Z,3.82
2022-11-27T10:21:08.763Z,3.92
2022-11-27T10:22:14.276Z,4.02
2022-11-27T10:23:16.564Z,4.17
2022-11-27T10:24:19.549Z,3.53
2022-11-27T10:25:22.617Z,2.75
2022-11-27T10:26:26.002Z,2.91
2022-11-27T10:27:29.086Z,2.47
2022-11-27T10:28:31.856Z,2.25
2022-11-27T10:29:35.913Z,2.14
2022-11-27T10:30:38.947Z,2.09
2022-11-27T10:31:43.003Z,1.93
2022-11-27T10:32:55.279Z,1.85
2022-11-27T10:33:51.670Z,2.42
2022-11-27T10:34:55.039Z,2.14
2022-11-27T10:35:58.225Z,2.37
2022-11-27T10:37:01.197Z,2.16
2022-11-27T10:38:07.108Z,2.48
2022-11-27T10:39:08.594Z,2.97
2022-11-27T10:40:11.373Z,2.73
2022-11-27T10:41:34.295Z,2.57
2022-11-27T10:42:19.155Z,2.56
2022-11-27T10:43:22.457Z,2.35
2022-11-27T10:44:25.437Z,2.24
2022-11-27T10:45:28.618Z,2.12
2022-11-27T10:46:31.683Z,1.70
2022-11-27T10:47:34.565Z,1.66
2022-11-27T10:48:37.334Z,1.82
2022-11-27T10:49:40.512Z,1.85
2022-11-27T10:50:43.286Z,1.57
2022-11-27T10:51:46.268Z,1.70
2022-11-27T10:52:52.394Z,1.87
2022-11-27T10:53:53.439Z,1.54
2022-11-27T10:54:56.330Z,2.05
2022-11-27T10:55:59.103Z,1.67
2022-11-27T10:57:02.060Z,1.78
2022-11-27T10:58:04.875Z,1.52
2022-11-27T10:59:07.607Z,2.32
2022-11-27T11:00:10.794Z,1.82
2022-11-27T11:01:13.748Z,1.48
2022-11-27T11:02:16.586Z,1.48
2022-11-27T11:03:19.424Z,1.38
2022-11-27T11:04:37.589Z,1.58
2022-11-27T11:06:11.678Z,1.75
2022-11-27T11:06:31.234Z,1.78
2022-11-27T11:07:34.546Z,1.62
2022-11-27T11:08:37.586Z,1.42
2022-11-27T11:09:40.678Z,1.50
2022-11-27T11:10:43.639Z,1.54
2022-11-27T11:11:46.607Z,1.69
2022-11-27T11:12:49.496Z,1.72
2022-11-27T11:13:52.778Z,1.67
2022-11-27T11:14:55.859Z,1.98
2022-11-27T11:15:58.729Z,1.94
2022-11-27T11:17:01.834Z,2.04
2022-11-27T11:18:04.691Z,2.13
2022-11-27T11:19:08.165Z,1.98
2022-11-27T11:20:11.554Z,2.04
2022-11-27T11:21:14.847Z,2.38
2022-11-27T11:22:18.052Z,1.95
2022-11-27T11:23:20.996Z,2.16
2022-11-27T11:24:24.197Z,1.91
2022-11-27T11:25:27.472Z,1.66
2022-11-27T11:26:30.543Z,1.52
2022-11-27T11:27:33.522Z,1.95
2022-11-27T11:28:39.633Z,2.04
2022-11-27T11:29:41.458Z,1.95
2022-11-27T11:30:44.950Z,1.91
2022-11-27T11:31:48.142Z,2.15
2022-11-27T11:32:51.067Z,2.11
2022-11-27T11:33:54.049Z,1.71
2022-11-27T11:35:00.903Z,1.77
2022-11-27T11:36:01.437Z,1.51
2022-11-27T11:37:04.422Z,1.58
2022-11-27T11:38:07.391Z,1.48
2022-11-27T11:39:10.364Z,1.63
2022-11-27T11:40:16.233Z,1.78
2022-11-27T11:41:19.952Z,1.81
2022-11-27T11:42:22.995Z,1.85
2022-11-27T11:43:26.474Z,1.83
2022-11-27T11:44:29.551Z,2.03
2022-11-27T11:45:33.398Z,1.99
2022-11-27T11:46:36.764Z,1.98
2022-11-27T11:47:39.603Z,1.83
2022-11-27T11:48:42.890Z,1.99
2022-11-27T11:49:46.176Z,1.80
2022-11-27T11:50:49.459Z,1.82
2022-11-27T11:51:52.553Z,2.02
2022-11-27T11:52:55.216Z,1.92
2022-11-27T11:53:58.915Z,2.16
2022-11-27T11:55:01.877Z,1.88
2022-11-27T11:56:04.967Z,1.85
2022-11-27T11:57:07.632Z,1.54
2022-11-27T11:58:10.507Z,1.59
2022-11-27T11:59:13.275Z,1.50
2022-11-27T12:00:16.567Z,1.50
2022-11-27T12:01:26.835Z,1.56
2022-11-27T12:02:25.048Z,1.89
2022-11-27T12:03:27.760Z,1.74
2022-11-27T12:04:30.975Z,1.57
2022-11-27T12:05:34.430Z,1.78
2022-11-27T12:06:37.702Z,1.68
2022-11-27T12:07:40.754Z,1.62
2022-11-27T12:08:44.168Z,1.75
2022-11-27T12:09:47.455Z,1.90
2022-11-27T12:10:50.527Z,1.83
2022-11-27T12:11:53.719Z,1.87
2022-11-27T12:12:56.688Z,1.76
2022-11-27T12:14:00.406Z,1.78
2022-11-27T12:15:03.874Z,1.94
2022-11-27T12:16:07.069Z,2.07
2022-11-27T12:17:10.250Z,1.80
2022-11-27T12:18:13.417Z,1.83
2022-11-27T12:19:16.495Z,1.78
2022-11-27T12:20:19.984Z,1.74
2022-11-27T12:21:23.372Z,1.75
2022-11-27T12:22:26.357Z,1.81
2022-11-27T12:23:30.145Z,1.55
2022-11-27T12:24:33.226Z,1.80
2022-11-27T12:25:36.196Z,1.80
2022-11-27T12:26:39.690Z,2.58
2022-11-27T12:27:42.966Z,2.66
2022-11-27T12:28:45.748Z,2.65
2022-11-27T12:29:49.445Z,2.77
2022-11-27T12:30:52.830Z,3.06
2022-11-27T12:31:56.455Z,2.94
2022-11-27T12:32:59.800Z,3.03
2022-11-27T12:34:02.794Z,3.05
2022-11-27T12:35:06.071Z,3.19
2022-11-27T12:36:08.837Z,3.41
2022-11-27T12:37:14.038Z,3.37
2022-11-27T12:38:16.125Z,3.91
2022-11-27T12:39:19.507Z,3.47
2022-11-27T12:40:22.381Z,3.76
2022-11-27T12:41:25.565Z,4.29
2022-11-27T12:42:28.748Z,5.45
2022-11-27T12:43:31.824Z,6.32
2022-11-27T12:44:35.225Z,7.14
2022-11-27T12:45:38.130Z,6.98
2022-11-27T12:46:41.376Z,8.21
2022-11-27T12:47:44.659Z,8.44
2022-11-27T12:48:47.743Z,7.77
2022-11-27T12:49:50.821Z,9.04
2022-11-27T12:50:54.102Z,9.54
2022-11-27T12:51:57.501Z,9.79
2022-11-27T12:53:00.874Z,10.41
2022-11-27T12:54:03.692Z,10.04
2022-11-27T12:55:06.520Z,10.60
2022-11-27T12:56:09.295Z,11.02
2022-11-27T12:57:12.370Z,11.29
2022-11-27T12:58:15.350Z,11.62
2022-11-27T12:59:18.633Z,12.11
2022-11-27T13:00:22.034Z,12.09
2022-11-27T13:01:26.779Z,12.25
2022-11-27T13:02:29.598Z,12.65
2022-11-27T13:03:32.599Z,12.32
2022-11-27T13:04:35.260Z,12.52
2022-11-27T13:05:38.130Z,12.44
2022-11-27T13:06:41.111Z,12.30
2022-11-27T13:07:43.946Z,12.63
2022-11-27T13:08:52.090Z,11.92
2022-11-27T13:09:51.586Z,12.14
2022-11-27T13:10:54.346Z,12.38
2022-11-27T13:11:57.458Z,12.69
2022-11-27T13:13:00.302Z,13.01
2022-11-27T13:14:03.277Z,12.90
2022-11-27T13:15:06.365Z,12.83
2022-11-27T13:16:09.553Z,11.48
2022-11-27T13:17:12.319Z,11.56
2022-11-27T13:18:15.407Z,10.82
2022-11-27T13:19:18.580Z,11.34
2022-11-27T13:20:21.766Z,11.32
2022-11-27T13:21:24.841Z,11.62
2022-11-27T13:22:28.017Z,12.71
2022-11-27T13:23:31.410Z,12.28
2022-11-27T13:24:34.588Z,10.94
2022-11-27T13:25:37.776Z,12.06
2022-11-27T13:26:41.249Z,11.85
2022-11-27T13:27:44.751Z,12.51
2022-11-27T13:28:47.926Z,11.98
2022-11-27T13:29:51.109Z,11.85
2022-11-27T13:30:54.801Z,12.26
2022-11-27T13:31:57.951Z,12.75
2022-11-27T13:33:01.069Z,12.90
2022-11-27T13:34:03.955Z,11.86
2022-11-27T13:35:06.925Z,11.91
2022-11-27T13:36:09.907Z,12.08
2022-11-27T13:37:13.393Z,13.07
2022-11-27T13:38:16.562Z,12.61
2022-11-27T13:39:19.849Z,11.78
2022-11-27T13:40:23.047Z,12.28
2022-11-27T13:41:26.112Z,12.62
2022-11-27T13:42:29.520Z,11.41
2022-11-27T13:43:32.781Z,11.23
2022-11-27T13:44:36.291Z,12.16
2022-11-27T13:45:39.407Z,12.29
2022-11-27T13:46:42.530Z,12.58
2022-11-27T13:47:45.503Z,11.70
2022-11-27T13:48:48.484Z,11.12
2022-11-27T13:49:51.366Z,11.25
2022-11-27T13:50:54.389Z,11.62
2022-11-27T13:51:57.939Z,12.54
2022-11-27T13:53:01.110Z,11.68
2022-11-27T13:54:03.882Z,11.79
2022-11-27T13:55:06.653Z,12.24
2022-11-27T13:56:09.333Z,12.18
2022-11-27T13:57:12.209Z,11.68
2022-11-27T13:58:15.381Z,11.35
2022-11-27T13:59:18.250Z,11.02
2022-11-27T14:00:21.129Z,10.09
2022-11-27T14:01:23.957Z,10.08
2022-11-27T14:02:26.722Z,10.17
2022-11-27T14:03:29.451Z,10.45
2022-11-27T14:04:32.340Z,10.35
2022-11-27T14:05:35.205Z,11.04
2022-11-27T14:06:38.170Z,10.82
2022-11-27T14:07:41.252Z,10.48
2022-11-27T14:08:44.224Z,10.31
2022-11-27T14:09:47.020Z,10.55
2022-11-27T14:10:49.885Z,10.06
2022-11-27T14:11:52.960Z,9.75
2022-11-27T14:12:56.382Z,9.92
2022-11-27T14:13:59.731Z,9.85
2022-11-27T14:15:03.021Z,9.74
2022-11-27T14:16:05.739Z,9.05
2022-11-27T14:17:08.662Z,10.08
2022-11-27T14:18:11.851Z,10.13
2022-11-27T14:19:14.931Z,9.84
2022-11-27T14:20:17.823Z,10.15
2022-11-27T14:21:21.202Z,10.14
2022-11-27T14:22:23.953Z,9.61
2022-11-27T14:23:26.830Z,9.55
2022-11-27T14:24:29.815Z,10.03
2022-11-27T14:25:32.578Z,9.27
2022-11-27T14:26:35.452Z,9.05
2022-11-27T14:27:38.128Z,8.56
2022-11-27T14:28:41.122Z,9.49
2022-11-27T14:29:44.182Z,9.41
2022-11-27T14:30:47.051Z,8.85
2022-11-27T14:31:50.185Z,9.02
2022-11-27T14:32:53.014Z,9.15
2022-11-27T14:35:00.400Z,9.44
2022-11-27T14:36:03.277Z,8.33
2022-11-27T14:37:06.361Z,8.63
2022-11-27T14:38:09.220Z,9.28
2022-11-27T14:39:12.002Z,9.09
2022-11-27T14:40:14.772Z,9.12
2022-11-27T14:41:17.958Z,9.28
2022-11-27T14:42:24.019Z,8.43
2022-11-27T14:43:25.235Z,8.39
2022-11-27T14:44:28.211Z,9.16
2022-11-27T14:45:31.093Z,9.24
2022-11-27T14:46:33.924Z,8.83
2022-11-27T14:47:36.640Z,9.06
2022-11-27T14:48:39.710Z,9.07
2022-11-27T14:49:42.920Z,9.34
2022-11-27T14:50:46.180Z,9.14
2022-11-27T14:51:49.152Z,8.68
2022-11-27T14:52:52.356Z,9.21
2022-11-27T14:53:55.421Z,9.09
2022-11-27T14:54:58.288Z,9.31
2022-11-27T14:56:01.262Z,9.87
2022-11-27T14:57:04.549Z,9.43
2022-11-27T14:58:07.218Z,9.16
2022-11-27T14:59:10.401Z,9.61
2022-11-27T15:00:13.175Z,9.52
2022-11-27T15:01:16.153Z,9.51
2022-11-27T15:02:19.999Z,8.92
2022-11-27T15:03:24.049Z,8.95
2022-11-27T15:04:27.131Z,8.38
2022-11-27T15:05:30.332Z,8.80
2022-11-27T15:06:33.299Z,8.43
2022-11-27T15:07:43.984Z,8.56
2022-11-27T15:08:41.092Z,8.79
2022-11-27T15:09:44.298Z,9.14
2022-11-27T15:10:48.785Z,8.64
2022-11-27T15:11:56.122Z,8.46
2022-11-27T15:12:55.973Z,8.38
2022-11-27T15:13:59.152Z,8.63
2022-11-27T15:15:01.818Z,8.52
2022-11-27T15:16:05.096Z,8.84
2022-11-27T15:17:08.083Z,9.11
2022-11-27T15:18:11.161Z,9.30
2022-11-27T15:19:14.347Z,9.65
2022-11-27T15:20:17.422Z,8.97
2022-11-27T15:21:20.288Z,8.85
2022-11-27T15:22:23.092Z,8.75
2022-11-27T15:23:26.072Z,8.14
2022-11-27T15:24:29.018Z,8.72
2022-11-27T15:25:31.906Z,8.91
2022-11-27T15:26:34.973Z,9.15
2022-11-27T15:27:37.852Z,8.85
2022-11-27T15:28:41.036Z,8.48
2022-11-27T15:29:44.732Z,8.85
2022-11-27T15:30:47.711Z,8.33
2022-11-27T15:31:50.652Z,8.62
2022-11-27T15:32:53.687Z,8.44
2022-11-27T15:33:57.050Z,9.52
2022-11-27T15:35:00.140Z,8.89
2022-11-27T15:36:03.227Z,8.92
2022-11-27T15:37:06.389Z,9.18
2022-11-27T15:38:09.050Z,9.19
2022-11-27T15:39:12.027Z,9.12
2022-11-27T15:40:15.532Z,8.24
2022-11-27T15:41:18.523Z,8.97
2022-11-27T15:42:21.685Z,8.65
2022-11-27T15:43:25.178Z,8.70
2022-11-27T15:44:28.368Z,9.13
2022-11-27T15:45:31.664Z,8.53
2022-11-27T15:46:34.816Z,8.82
2022-11-27T15:47:38.002Z,8.67
2022-11-27T15:48:40.975Z,8.63
2022-11-27T15:49:44.159Z,9.26
2022-11-27T15:50:51.656Z,8.90
2022-11-27T15:51:52.058Z,8.61
2022-11-27T15:52:55.339Z,8.92
2022-11-27T15:53:58.534Z,8.02
2022-11-27T15:55:01.606Z,8.06
2022-11-27T15:56:04.470Z,8.34
2022-11-27T15:57:07.656Z,8.28
2022-11-27T15:58:10.430Z,8.58
2022-11-27T15:59:13.828Z,8.55
2022-11-27T16:00:16.598Z,8.54
2022-11-27T16:01:19.977Z,9.14
2022-11-27T16:02:23.203Z,8.22
2022-11-27T16:03:26.442Z,8.59
2022-11-27T16:04:29.843Z,8.55
2022-11-27T16:05:33.118Z,7.72
2022-11-27T16:06:36.208Z,8.65
2022-11-27T16:07:39.141Z,8.13
2022-11-27T16:08:42.241Z,7.86
2022-11-27T16:09:45.529Z,8.40
2022-11-27T16:10:48.821Z,8.39
2022-11-27T16:11:52.102Z,8.64
2022-11-27T16:12:55.445Z,8.05
2022-11-27T16:13:58.460Z,8.12
2022-11-27T16:15:01.964Z,8.05
2022-11-27T16:16:05.299Z,8.20
2022-11-27T16:17:08.114Z,7.81
2022-11-27T16:18:11.187Z,7.81
2022-11-27T16:19:14.170Z,8.18
2022-11-27T16:20:17.144Z,7.68
2022-11-27T16:21:19.916Z,7.69
2022-11-27T16:22:23.211Z,7.74
2022-11-27T16:23:26.512Z,7.45
2022-11-27T16:24:29.664Z,7.42
2022-11-27T16:25:33.053Z,8.06
2022-11-27T16:26:36.235Z,7.75
2022-11-27T16:27:38.910Z,8.65
2022-11-27T16:28:41.773Z,7.74
2022-11-27T16:29:44.968Z,8.25
2022-11-27T16:30:47.944Z,8.42
2022-11-27T16:31:50.856Z,8.38
2022-11-27T16:32:53.789Z,7.43
2022-11-27T16:33:56.664Z,7.87
2022-11-27T16:35:00.052Z,7.43
2022-11-27T16:36:02.840Z,7.91
2022-11-27T16:37:05.822Z,7.86
2022-11-27T16:38:08.580Z,7.53
2022-11-27T16:39:12.496Z,7.26
2022-11-27T16:40:15.264Z,7.32
2022-11-27T16:41:18.126Z,7.38
2022-11-27T16:42:21.404Z,7.74
2022-11-27T16:43:24.496Z,7.81
2022-11-27T16:44:27.667Z,7.79
2022-11-27T16:45:30.988Z,8.32
2022-11-27T16:46:34.454Z,7.28
2022-11-27T16:47:37.823Z,7.39
2022-11-27T16:48:41.431Z,7.44
2022-11-27T16:49:44.703Z,7.45
2022-11-27T16:50:47.888Z,7.74
2022-11-27T16:51:51.067Z,7.77
2022-11-27T16:52:54.739Z,7.67
2022-11-27T16:53:57.862Z,7.86
2022-11-27T16:55:01.130Z,7.82
2022-11-27T16:56:04.510Z,7.65
2022-11-27T16:57:07.586Z,8.63
2022-11-27T16:58:10.971Z,7.39
2022-11-27T16:59:13.745Z,6.49
2022-11-27T17:00:16.824Z,7.06
2022-11-27T17:01:20.827Z,7.40
2022-11-27T17:02:24.054Z,7.68
2022-11-27T17:03:27.407Z,7.38
2022-11-27T17:04:30.680Z,6.77
2022-11-27T17:05:33.974Z,7.00
2022-11-27T17:06:37.352Z,6.78
2022-11-27T17:07:40.457Z,7.52
2022-11-27T17:08:43.706Z,7.85
2022-11-27T17:09:46.791Z,7.33
2022-11-27T17:10:50.073Z,7.42
2022-11-27T17:11:53.068Z,8.20
2022-11-27T17:12:56.151Z,7.36
2022-11-27T17:13:59.127Z,6.70
2022-11-27T17:15:01.890Z,7.11
2022-11-27T17:16:04.621Z,7.01
2022-11-27T17:17:07.648Z,7.29
2022-11-27T17:18:10.508Z,7.74
2022-11-27T17:19:13.488Z,6.94
2022-11-27T17:20:16.363Z,7.51
2022-11-27T17:21:19.539Z,6.91
2022-11-27T17:22:22.311Z,7.05
2022-11-27T17:23:25.188Z,7.33
2022-11-27T17:24:27.853Z,7.62
2022-11-27T17:25:30.936Z,6.92
2022-11-27T17:26:34.334Z,6.95
2022-11-27T17:27:37.203Z,7.19
2022-11-27T17:28:40.075Z,7.19
2022-11-27T17:29:43.797Z,6.86
2022-11-27T17:30:46.743Z,7.01
2022-11-27T17:31:49.743Z,6.94
2022-11-27T17:32:52.495Z,7.34
2022-11-27T17:33:55.163Z,7.28
2022-11-27T17:34:58.349Z,6.80
2022-11-27T17:36:01.326Z,6.88
2022-11-27T17:37:04.230Z,7.25
2022-11-27T17:38:07.271Z,7.12
2022-11-27T17:39:10.253Z,7.19
2022-11-27T17:40:13.019Z,7.41
2022-11-27T17:41:16.010Z,6.85
2022-11-27T17:42:22.698Z,6.86
2022-11-27T17:43:23.190Z,7.17
2022-11-27T17:44:26.467Z,7.03
2022-11-27T17:45:29.332Z,7.32
2022-11-27T17:46:32.221Z,7.12
2022-11-27T17:47:35.088Z,6.99
2022-11-27T17:48:38.068Z,7.36
2022-11-27T17:49:41.242Z,7.07
2022-11-27T17:50:44.230Z,6.72
2022-11-27T17:51:47.097Z,6.60
2022-11-27T17:52:49.979Z,6.83
2022-11-27T17:53:52.950Z,6.85
2022-11-27T17:54:56.036Z,6.74
2022-11-27T17:55:58.804Z,6.63
2022-11-27T17:57:01.678Z,6.68
2022-11-27T17:58:04.652Z,6.91
2022-11-27T17:59:07.531Z,6.73
2022-11-27T18:00:10.307Z,6.70
2022-11-27T18:01:13.233Z,7.18
2022-11-27T18:02:16.008Z,7.50
2022-11-27T18:03:19.364Z,6.76
2022-11-27T18:04:22.028Z,6.45
2022-11-27T18:05:24.886Z,6.38
2022-11-27T18:06:27.753Z,6.21
2022-11-27T18:07:31.026Z,7.12
2022-11-27T18:08:34.021Z,6.86
2022-11-27T18:09:36.790Z,6.62
2022-11-27T18:10:39.561Z,6.69
2022-11-27T18:11:42.335Z,7.09
2022-11-27T18:12:45.211Z,7.10
2022-11-27T18:13:47.982Z,6.40
2022-11-27T18:14:50.901Z,6.79
2022-11-27T18:15:53.622Z,7.55
2022-11-27T18:16:56.605Z,6.92
2022-11-27T18:17:59.682Z,6.75
2022-11-27T18:19:02.361Z,6.33
2022-11-27T18:20:05.343Z,7.08
2022-11-27T18:21:08.664Z,6.38
2022-11-27T18:22:11.583Z,6.76
2022-11-27T18:23:14.364Z,6.86
2022-11-27T18:24:25.454Z,6.73
2022-11-27T18:25:22.271Z,6.15
2022-11-27T18:26:45.620Z,6.80
2022-11-27T18:27:29.453Z,6.24
2022-11-27T18:28:32.223Z,6.55
2022-11-27T18:29:35.197Z,6.63
2022-11-27T18:30:38.725Z,6.38
2022-11-27T18:31:41.860Z,6.38
2022-11-27T18:32:45.050Z,6.52
2022-11-27T18:33:47.726Z,6.42
2022-11-27T18:34:50.491Z,6.37
2022-11-27T18:35:53.571Z,6.43
2022-11-27T18:36:56.470Z,6.51
2022-11-27T18:37:59.420Z,6.02
2022-11-27T18:39:02.502Z,6.56
2022-11-27T18:40:05.592Z,6.05
2022-11-27T18:41:08.349Z,6.78
2022-11-27T18:42:11.953Z,6.58
2022-11-27T18:43:14.811Z,6.64
2022-11-27T18:44:17.909Z,7.08
2022-11-27T18:45:33.304Z,6.28
2022-11-27T18:46:25.602Z,6.57
2022-11-27T18:47:29.213Z,6.48
2022-11-27T18:48:32.066Z,6.16
2022-11-27T18:49:35.341Z,6.77
2022-11-27T18:50:38.529Z,6.81
2022-11-27T18:51:41.300Z,5.90
2022-11-27T18:52:44.283Z,6.14
2022-11-27T18:53:47.469Z,6.78
2022-11-27T18:54:50.433Z,6.37
2022-11-27T18:55:53.308Z,6.01
2022-11-27T18:56:56.389Z,6.23
2022-11-27T18:57:59.273Z,6.42
2022-11-27T18:59:02.566Z,6.00
2022-11-27T19:00:05.536Z,5.61
2022-11-27T19:01:09.304Z,6.06
2022-11-27T19:02:12.525Z,5.96
2022-11-27T19:03:15.692Z,6.34
2022-11-27T19:04:18.563Z,6.29
2022-11-27T19:05:21.446Z,6.02
2022-11-27T19:06:24.625Z,5.55
2022-11-27T19:07:27.555Z,6.02
2022-11-27T19:08:30.368Z,6.31
2022-11-27T19:09:33.027Z,6.35
2022-11-27T19:10:36.421Z,5.97
2022-11-27T19:11:39.712Z,5.76
2022-11-27T19:12:42.840Z,6.15
2022-11-27T19:13:45.955Z,6.21
2022-11-27T19:14:49.048Z,5.77
2022-11-27T19:15:52.156Z,6.08
2022-11-27T19:16:55.138Z,6.72
2022-11-27T19:17:58.492Z,6.09
2022-11-27T19:19:01.577Z,6.61
2022-11-27T19:20:04.635Z,6.42
2022-11-27T19:21:08.230Z,5.92
2022-11-27T19:22:10.917Z,5.86
2022-11-27T19:23:14.405Z,6.23
2022-11-27T19:24:17.279Z,6.44
2022-11-27T19:25:20.048Z,5.89
2022-11-27T19:26:23.223Z,5.76
2022-11-27T19:27:26.303Z,5.87
2022-11-27T19:28:29.492Z,6.39
2022-11-27T19:29:32.670Z,6.34
2022-11-27T19:30:35.847Z,6.02
2022-11-27T19:31:38.921Z,6.12
2022-11-27T19:32:42.017Z,6.08
2022-11-27T19:33:45.299Z,6.62
2022-11-27T19:34:48.571Z,6.25
2022-11-27T19:35:51.547Z,6.25
2022-11-27T19:36:54.944Z,5.90
2022-11-27T19:37:57.928Z,5.59
2022-11-27T19:39:01.304Z,5.48
2022-11-27T19:40:04.589Z,6.21
2022-11-27T19:41:07.761Z,6.38
2022-11-27T19:42:10.954Z,5.78
2022-11-27T19:43:13.966Z,5.90
2022-11-27T19:44:16.809Z,5.65
2022-11-27T19:45:19.887Z,5.77
2022-11-27T19:46:23.688Z,5.92
2022-11-27T19:47:27.068Z,6.19
2022-11-27T19:48:30.245Z,6.21
2022-11-27T19:49:33.857Z,5.80
2022-11-27T19:50:36.920Z,5.98
2022-11-27T19:51:39.906Z,5.84
2022-11-27T19:52:43.071Z,6.52
2022-11-27T19:53:46.253Z,6.16
2022-11-27T19:54:49.751Z,5.78
2022-11-27T19:55:52.725Z,6.21
2022-11-27T19:56:56.325Z,6.42
2022-11-27T19:57:59.512Z,6.16
2022-11-27T19:59:02.691Z,6.01
2022-11-27T20:00:05.565Z,6.03
2022-11-27T20:01:08.500Z,5.82
2022-11-27T20:02:11.343Z,5.98
2022-11-27T20:03:14.604Z,6.27
2022-11-27T20:04:17.570Z,6.55
2022-11-27T20:05:20.333Z,6.19
2022-11-27T20:06:23.115Z,5.56
2022-11-27T20:07:25.912Z,6.21
2022-11-27T20:08:28.762Z,6.10
2022-11-27T20:09:32.252Z,6.78
2022-11-27T20:10:35.525Z,6.75
2022-11-27T20:11:39.449Z,6.19
2022-11-27T20:12:42.605Z,6.58
2022-11-27T20:13:46.220Z,7.08
2022-11-27T20:14:49.175Z,6.47
2022-11-27T20:15:52.661Z,6.57
2022-11-27T20:16:55.913Z,5.91
2022-11-27T20:17:58.859Z,5.89
2022-11-27T20:19:01.799Z,6.22
2022-11-27T20:20:04.987Z,6.41
2022-11-27T20:21:08.071Z,6.38
2022-11-27T20:22:10.830Z,6.03
2022-11-27T20:23:13.815Z,6.21
2022-11-27T20:24:16.789Z,6.02
2022-11-27T20:25:20.672Z,5.92
2022-11-27T20:26:24.905Z,6.35
2022-11-27T20:27:27.871Z,6.65
2022-11-27T20:28:31.075Z,6.48
2022-11-27T20:29:34.244Z,5.88
2022-11-27T20:30:38.644Z,6.44
2022-11-27T20:31:41.753Z,5.89
2022-11-27T20:32:44.906Z,6.12
2022-11-27T20:33:47.679Z,6.38
2022-11-27T20:34:50.957Z,5.88
2022-11-27T20:35:53.857Z,6.06
2022-11-27T20:36:56.934Z,6.22
2022-11-27T20:37:59.704Z,6.23
2022-11-27T20:39:02.469Z,6.58
2022-11-27T20:40:05.640Z,6.28
2022-11-27T20:41:09.749Z,6.12
2022-11-27T20:42:12.519Z,6.06
2022-11-27T20:43:15.404Z,6.48
2022-11-27T20:44:18.373Z,6.05
2022-11-27T20:45:21.651Z,5.96
2022-11-27T20:46:24.490Z,6.24
2022-11-27T20:47:27.405Z,6.08
2022-11-27T20:48:30.708Z,5.55
2022-11-27T20:49:33.251Z,5.39
2022-11-27T20:50:36.434Z,5.67
2022-11-27T20:51:39.717Z,5.82
2022-11-27T20:52:42.814Z,5.68
2022-11-27T20:53:45.675Z,6.22
2022-11-27T20:54:48.855Z,6.35
2022-11-27T20:55:51.735Z,5.79
2022-11-27T20:56:55.231Z,6.30
2022-11-27T20:57:58.302Z,6.04
2022-11-27T20:59:01.395Z,6.46
2022-11-27T21:00:04.661Z,5.84
2022-11-27T21:01:08.038Z,5.75
2022-11-27T21:02:11.368Z,5.85
2022-11-27T21:03:14.680Z,6.05
2022-11-27T21:04:17.809Z,6.04
2022-11-27T21:05:20.797Z,6.09
2022-11-27T21:06:23.971Z,6.58
2022-11-27T21:07:28.059Z,6.20
2022-11-27T21:08:31.889Z,6.06
2022-11-27T21:09:35.050Z,5.94
2022-11-27T21:10:39.068Z,6.26
2022-11-27T21:11:42.645Z,6.19
2022-11-27T21:12:45.840Z,5.88
2022-11-27T21:13:49.102Z,5.92
2022-11-27T21:14:52.292Z,5.72
2022-11-27T21:15:55.365Z,6.40
2022-11-27T21:17:04.350Z,6.68
2022-11-27T21:18:03.686Z,6.05
2022-11-27T21:19:06.955Z,6.37
2022-11-27T21:20:09.935Z,6.38
2022-11-27T21:21:13.539Z,5.98
2022-11-27T21:22:16.344Z,5.95
2022-11-27T21:23:19.497Z,6.62
2022-11-27T21:24:22.834Z,5.69
2022-11-27T21:25:25.886Z,5.48
2022-11-27T21:26:29.121Z,5.78
2022-11-27T21:27:31.906Z,5.67
2022-11-27T21:28:35.287Z,5.07
2022-11-27T21:29:39.181Z,5.98
2022-11-27T21:30:42.092Z,5.80
2022-11-27T21:31:47.066Z,6.01
2022-11-27T21:32:49.573Z,5.98
2022-11-27T21:33:52.218Z,5.66
2022-11-27T21:34:54.989Z,5.58
2022-11-27T21:35:57.971Z,6.13
2022-11-27T21:37:01.245Z,5.85
2022-11-27T21:38:04.339Z,5.46
2022-11-27T21:39:08.043Z,5.85
2022-11-27T21:40:11.417Z,5.39
2022-11-27T21:41:14.389Z,5.81
2022-11-27T21:42:17.566Z,5.35
2022-11-27T21:43:20.550Z,5.84
2022-11-27T21:44:27.037Z,5.97
2022-11-27T21:45:30.425Z,6.02
2022-11-27T21:46:33.303Z,5.79
2022-11-27T21:47:36.348Z,5.65
2022-11-27T21:48:39.433Z,5.78
2022-11-27T21:49:42.507Z,5.97
2022-11-27T21:50:45.888Z,5.58
2022-11-27T21:51:48.966Z,5.66
2022-11-27T21:52:51.956Z,6.13
2022-11-27T21:53:54.923Z,5.74
2022-11-27T21:54:58.036Z,5.51
2022-11-27T21:56:00.787Z,4.91
2022-11-27T21:57:03.563Z,4.87
2022-11-27T21:58:06.528Z,6.00
2022-11-27T21:59:09.311Z,5.47
2022-11-27T22:00:14.535Z,5.22
2022-11-27T22:01:17.754Z,5.51
2022-11-27T22:02:20.412Z,5.68
2022-11-27T22:03:23.400Z,5.17
2022-11-27T22:04:26.535Z,5.55
2022-11-27T22:05:29.413Z,5.07
2022-11-27T22:06:32.196Z,5.23
2022-11-27T22:07:35.323Z,5.34
2022-11-27T22:08:38.240Z,5.35
2022-11-27T22:09:41.118Z,5.93
2022-11-27T22:10:43.985Z,5.26
2022-11-27T22:11:47.173Z,5.62
2022-11-27T22:12:50.139Z,5.57
2022-11-27T22:13:52.916Z,5.76
2022-11-27T22:14:56.437Z,5.29
2022-11-27T22:15:59.395Z,5.52
2022-11-27T22:17:02.254Z,4.95
2022-11-27T22:18:05.134Z,5.40
2022-11-27T22:19:08.151Z,5.49
2022-11-27T22:20:11.290Z,5.02
2022-11-27T22:21:14.164Z,5.33
2022-11-27T22:22:17.042Z,5.02
2022-11-27T22:23:20.118Z,4.72
2022-11-27T22:24:23.403Z,4.96
2022-11-27T22:25:26.187Z,5.08
2022-11-27T22:26:29.154Z,4.75
2022-11-27T22:27:32.026Z,4.40
2022-11-27T22:28:35.121Z,4.58
2022-11-27T22:29:37.883Z,4.66
2022-11-27T22:30:41.006Z,4.53
2022-11-27T22:31:44.441Z,4.68
2022-11-27T22:32:47.317Z,5.11
2022-11-27T22:33:50.122Z,5.06
2022-11-27T22:34:53.097Z,5.22
2022-11-27T22:35:55.848Z,4.69
2022-11-27T22:36:58.940Z,4.62
2022-11-27T22:38:01.693Z,4.52
2022-11-27T22:39:04.671Z,4.78
2022-11-27T22:40:07.669Z,5.12
2022-11-27T22:41:10.840Z,5.79
2022-11-27T22:42:13.712Z,5.08
2022-11-27T22:43:17.028Z,4.78
2022-11-27T22:44:19.972Z,4.88
2022-11-27T22:45:22.940Z,4.75
2022-11-27T22:46:26.521Z,5.13
2022-11-27T22:47:30.049Z,5.18
2022-11-27T22:48:33.009Z,5.07
2022-11-27T22:49:36.081Z,4.98
2022-11-27T22:50:39.274Z,4.96
2022-11-27T22:51:42.349Z,5.34
2022-11-27T22:52:45.854Z,5.22
2022-11-27T22:53:48.921Z,5.16
2022-11-27T22:54:52.295Z,4.44
2022-11-27T22:55:55.271Z,4.71
2022-11-27T22:56:58.265Z,4.33
2022-11-27T22:58:01.328Z,4.22
2022-11-27T22:59:31.829Z,4.99
2022-11-27T23:00:09.343Z,5.15
2022-11-27T23:01:12.731Z,5.05
2022-11-27T23:02:16.119Z,5.05
2022-11-27T23:03:19.831Z,4.58
2022-11-27T23:04:22.890Z,4.94
2022-11-27T23:05:25.867Z,5.21
2022-11-27T23:06:28.865Z,5.36
2022-11-27T23:07:32.200Z,4.90
2022-11-27T23:08:34.994Z,4.98
2022-11-27T23:09:39.117Z,5.12
2022-11-27T23:10:42.173Z,5.49
2022-11-27T23:11:45.369Z,5.35
2022-11-27T23:12:48.236Z,5.08
2022-11-27T23:13:52.152Z,4.97
2022-11-27T23:14:55.315Z,5.14
2022-11-27T23:15:58.705Z,4.82
2022-11-27T23:17:01.732Z,5.19
2022-11-27T23:18:05.586Z,5.00
2022-11-27T23:19:09.073Z,5.21
2022-11-27T23:20:11.739Z,4.66
2022-11-27T23:21:15.751Z,5.06
2022-11-27T23:22:18.625Z,5.12
2022-11-27T23:23:21.499Z,5.15
2022-11-27T23:24:25.061Z,4.95
2022-11-27T23:25:27.952Z,4.96
2022-11-27T23:26:30.942Z,4.84
2022-11-27T23:27:34.627Z,4.89
2022-11-27T23:28:37.712Z,4.46
2022-11-27T23:29:40.592Z,4.63
2022-11-27T23:30:44.064Z,5.18
2022-11-27T23:31:47.613Z,4.79